sensor_id;sensor_type;location;lat;lon;timestamp;pressure;altitude;pressure_sealevel;temperature;humidity
65832;BME280;52593;42.648;23.332;2023-04-03T00:00:28;93932.94;;;5.80;78.67
65832;BME280;52593;42.648;23.332;2023-04-03T00:02:54;93934.44;;;5.82;78.84
65832;BME280;52593;42.648;23.332;2023-04-03T00:05:19;93928.97;;;5.76;78.32
65832;BME280;52593;42.648;23.332;2023-04-03T00:07:44;93926.81;;;5.79;78.71
65832;BME280;52593;42.648;23.332;2023-04-03T00:10:11;93939.91;;;5.81;78.48
65832;BME280;52593;42.648;23.332;2023-04-03T00:12:37;93921.00;;;5.84;78.00
65832;BME280;52593;42.648;23.332;2023-04-03T00:15:03;93923.81;;;5.74;78.51
65832;BME280;52593;42.648;23.332;2023-04-03T00:17:28;93923.34;;;5.70;78.86
65832;BME280;52593;42.648;23.332;2023-04-03T00:19:54;93923.03;;;5.65;79.46
65832;BME280;52593;42.648;23.332;2023-04-03T00:22:19;93917.25;;;5.53;79.65
65832;BME280;52593;42.648;23.332;2023-04-03T00:24:45;93907.13;;;5.49;79.61
65832;BME280;52593;42.648;23.332;2023-04-03T00:27:10;93910.78;;;5.56;79.58
65832;BME280;52593;42.648;23.332;2023-04-03T00:29:36;93905.31;;;5.58;79.21
65832;BME280;52593;42.648;23.332;2023-04-03T00:32:01;93905.47;;;5.48;79.51
65832;BME280;52593;42.648;23.332;2023-04-03T00:34:27;93904.16;;;5.35;80.22
65832;BME280;52593;42.648;23.332;2023-04-03T00:36:52;93915.94;;;5.41;80.31
65832;BME280;52593;42.648;23.332;2023-04-03T00:39:17;93905.84;;;5.28;80.46
65832;BME280;52593;42.648;23.332;2023-04-03T00:41:43;93915.13;;;5.41;80.10
65832;BME280;52593;42.648;23.332;2023-04-03T00:46:59;93912.94;;;5.28;80.46
65832;BME280;52593;42.648;23.332;2023-04-03T00:49:24;93921.25;;;5.25;81.08
65832;BME280;52593;42.648;23.332;2023-04-03T00:51:50;93919.75;;;5.22;80.65
65832;BME280;52593;42.648;23.332;2023-04-03T00:54:16;93910.81;;;5.15;80.89
65832;BME280;52593;42.648;23.332;2023-04-03T00:56:42;93922.41;;;5.14;81.31
65832;BME280;52593;42.648;23.332;2023-04-03T00:59:15;93935.66;;;5.22;81.12
65832;BME280;52593;42.648;23.332;2023-04-03T01:01:42;93929.53;;;5.22;81.10
65832;BME280;52593;42.648;23.332;2023-04-03T01:04:29;93930.34;;;5.14;80.38
65832;BME280;52593;42.648;23.332;2023-04-03T01:06:58;93923.38;;;5.29;79.53
65832;BME280;52593;42.648;23.332;2023-04-03T01:09:25;93917.09;;;5.30;78.94
65832;BME280;52593;42.648;23.332;2023-04-03T01:11:51;93918.91;;;5.22;79.04
65832;BME280;52593;42.648;23.332;2023-04-03T01:14:17;93930.34;;;5.22;79.63
65832;BME280;52593;42.648;23.332;2023-04-03T01:16:42;93925.06;;;5.14;80.65
65832;BME280;52593;42.648;23.332;2023-04-03T01:19:11;93914.28;;;5.07;80.57
65832;BME280;52593;42.648;23.332;2023-04-03T01:24:50;93924.91;;;5.07;80.54
65832;BME280;52593;42.648;23.332;2023-04-03T01:27:18;93919.09;;;4.95;80.42
65832;BME280;52593;42.648;23.332;2023-04-03T01:29:43;93909.78;;;4.91;80.45
65832;BME280;52593;42.648;23.332;2023-04-03T01:32:09;93912.28;;;4.76;81.21
65832;BME280;52593;42.648;23.332;2023-04-03T01:34:35;93912.13;;;4.78;81.57
65832;BME280;52593;42.648;23.332;2023-04-03T01:37:00;93926.88;;;4.89;81.70
65832;BME280;52593;42.648;23.332;2023-04-03T01:39:26;93922.88;;;4.93;81.17
65832;BME280;52593;42.648;23.332;2023-04-03T01:41:52;93926.38;;;4.93;81.24
65832;BME280;52593;42.648;23.332;2023-04-03T01:44:17;93920.41;;;4.75;82.21
65832;BME280;52593;42.648;23.332;2023-04-03T01:46:43;93923.38;;;4.72;82.27
65832;BME280;52593;42.648;23.332;2023-04-03T01:49:08;93912.91;;;4.62;82.72
65832;BME280;52593;42.648;23.332;2023-04-03T01:51:34;93915.06;;;4.67;82.39
65832;BME280;52593;42.648;23.332;2023-04-03T01:53:59;93930.31;;;4.64;82.53
65832;BME280;52593;42.648;23.332;2023-04-03T01:56:25;93924.03;;;4.66;83.18
65832;BME280;52593;42.648;23.332;2023-04-03T01:58:50;93930.75;;;4.52;83.36
65832;BME280;52593;42.648;23.332;2023-04-03T02:01:16;93931.44;;;4.54;83.83
65832;BME280;52593;42.648;23.332;2023-04-03T02:03:41;93922.66;;;4.53;83.87
65832;BME280;52593;42.648;23.332;2023-04-03T02:06:06;93926.31;;;4.52;84.00
65832;BME280;52593;42.648;23.332;2023-04-03T02:08:32;93926.47;;;4.59;83.81
65832;BME280;52593;42.648;23.332;2023-04-03T02:10:57;93918.69;;;4.57;83.67
65832;BME280;52593;42.648;23.332;2023-04-03T02:13:22;93926.47;;;4.59;83.97
65832;BME280;52593;42.648;23.332;2023-04-03T02:15:48;93927.50;;;4.66;83.71
65832;BME280;52593;42.648;23.332;2023-04-03T02:18:13;93949.19;;;4.70;83.59
65832;BME280;52593;42.648;23.332;2023-04-03T02:20:39;93928.66;;;4.63;83.73
65832;BME280;52593;42.648;23.332;2023-04-03T02:23:05;93920.69;;;4.55;83.70
65832;BME280;52593;42.648;23.332;2023-04-03T02:25:31;93931.28;;;4.55;83.81
65832;BME280;52593;42.648;23.332;2023-04-03T02:27:57;93932.28;;;4.54;83.66
65832;BME280;52593;42.648;23.332;2023-04-03T02:30:23;93919.50;;;4.41;83.82
65832;BME280;52593;42.648;23.332;2023-04-03T02:32:48;93917.69;;;4.50;83.92
65832;BME280;52593;42.648;23.332;2023-04-03T02:35:13;93918.84;;;4.47;84.09
65832;BME280;52593;42.648;23.332;2023-04-03T02:37:39;93918.16;;;4.45;84.44
65832;BME280;52593;42.648;23.332;2023-04-03T02:40:05;93906.91;;;4.35;84.32
65832;BME280;52593;42.648;23.332;2023-04-03T02:42:31;93921.78;;;4.36;84.24
65832;BME280;52593;42.648;23.332;2023-04-03T02:44:57;93916.81;;;4.33;84.51
65832;BME280;52593;42.648;23.332;2023-04-03T02:47:22;93901.03;;;4.15;84.83
65832;BME280;52593;42.648;23.332;2023-04-03T02:49:47;93904.69;;;4.14;85.22
65832;BME280;52593;42.648;23.332;2023-04-03T02:52:13;93898.56;;;4.22;85.11
65832;BME280;52593;42.648;23.332;2023-04-03T02:54:39;93904.03;;;4.28;84.78
65832;BME280;52593;42.648;23.332;2023-04-03T02:57:05;93896.06;;;4.12;84.91
65832;BME280;52593;42.648;23.332;2023-04-03T02:59:33;93898.41;;;4.15;85.62
65832;BME280;52593;42.648;23.332;2023-04-03T03:01:58;93892.06;;;4.08;86.10
65832;BME280;52593;42.648;23.332;2023-04-03T03:04:23;93885.75;;;4.01;86.21
65832;BME280;52593;42.648;23.332;2023-04-03T03:06:49;93887.75;;;4.07;86.58
65832;BME280;52593;42.648;23.332;2023-04-03T03:09:15;93892.09;;;4.16;85.91
65832;BME280;52593;42.648;23.332;2023-04-03T03:11:41;93885.31;;;4.14;85.79
65832;BME280;52593;42.648;23.332;2023-04-03T03:14:07;93884.47;;;4.05;86.04
65832;BME280;52593;42.648;23.332;2023-04-03T03:16:32;93876.53;;;4.13;86.31
65832;BME280;52593;42.648;23.332;2023-04-03T03:18:58;93885.66;;;4.27;85.77
65832;BME280;52593;42.648;23.332;2023-04-03T03:21:23;93884.63;;;4.03;85.76
65832;BME280;52593;42.648;23.332;2023-04-03T03:23:48;93893.06;;;4.07;85.88
65832;BME280;52593;42.648;23.332;2023-04-03T03:26:14;93876.19;;;4.00;86.00
65832;BME280;52593;42.648;23.332;2023-04-03T03:28:40;93888.31;;;3.84;86.13
65832;BME280;52593;42.648;23.332;2023-04-03T03:31:06;93873.13;;;3.86;86.63
65832;BME280;52593;42.648;23.332;2023-04-03T03:33:32;93874.59;;;3.81;86.76
65832;BME280;52593;42.648;23.332;2023-04-03T03:35:57;93877.09;;;3.82;86.90
65832;BME280;52593;42.648;23.332;2023-04-03T03:38:23;93895.03;;;3.97;86.89
65832;BME280;52593;42.648;23.332;2023-04-03T03:40:50;93894.19;;;3.96;86.53
65832;BME280;52593;42.648;23.332;2023-04-03T03:43:16;93890.03;;;3.93;86.54
65832;BME280;52593;42.648;23.332;2023-04-03T03:45:42;93893.50;;;3.94;86.77
65832;BME280;52593;42.648;23.332;2023-04-03T03:48:08;93876.19;;;4.00;86.85
65832;BME280;52593;42.648;23.332;2023-04-03T03:50:33;93886.28;;;4.04;86.02
65832;BME280;52593;42.648;23.332;2023-04-03T03:52:59;93878.94;;;3.90;86.35
65832;BME280;52593;42.648;23.332;2023-04-03T03:55:25;93892.00;;;3.91;86.28
65832;BME280;52593;42.648;23.332;2023-04-03T03:57:51;93882.72;;;3.87;86.19
65832;BME280;52593;42.648;23.332;2023-04-03T04:00:17;93884.88;;;3.92;86.27
65832;BME280;52593;42.648;23.332;2023-04-03T04:02:42;93891.34;;;3.89;86.19
65832;BME280;52593;42.648;23.332;2023-04-03T04:05:08;93893.84;;;3.91;85.83
65832;BME280;52593;42.648;23.332;2023-04-03T04:07:33;93877.25;;;3.81;86.26
65832;BME280;52593;42.648;23.332;2023-04-03T04:09:58;93887.66;;;3.82;86.72
65832;BME280;52593;42.648;23.332;2023-04-03T04:12:24;93896.25;;;3.84;86.36
65832;BME280;52593;42.648;23.332;2023-04-03T04:14:49;93902.41;;;3.85;86.18
65832;BME280;52593;42.648;23.332;2023-04-03T04:17:15;93909.28;;;3.69;86.57
65832;BME280;52593;42.648;23.332;2023-04-03T04:19:40;93892.56;;;3.69;86.75
65832;BME280;52593;42.648;23.332;2023-04-03T04:22:06;93902.00;;;3.71;86.89
65832;BME280;52593;42.648;23.332;2023-04-03T04:24:31;93896.97;;;3.86;86.44
65832;BME280;52593;42.648;23.332;2023-04-03T04:26:57;93910.38;;;3.93;86.06
65832;BME280;52593;42.648;23.332;2023-04-03T04:29:22;93907.72;;;3.93;85.81
65832;BME280;52593;42.648;23.332;2023-04-03T04:31:48;93898.13;;;3.92;86.03
65832;BME280;52593;42.648;23.332;2023-04-03T04:34:13;93905.78;;;4.03;86.02
65832;BME280;52593;42.648;23.332;2023-04-03T04:36:39;93903.81;;;4.05;85.73
65832;BME280;52593;42.648;23.332;2023-04-03T04:39:04;93913.97;;;4.18;85.48
65832;BME280;52593;42.648;23.332;2023-04-03T04:41:30;93917.78;;;4.24;85.49
65832;BME280;52593;42.648;23.332;2023-04-03T04:43:56;93908.69;;;4.26;85.54
65832;BME280;52593;42.648;23.332;2023-04-03T04:46:21;93912.69;;;4.47;84.30
65832;BME280;52593;42.648;23.332;2023-04-03T04:48:46;93895.28;;;4.36;84.31
65832;BME280;52593;42.648;23.332;2023-04-03T04:51:14;93918.16;;;4.45;84.09
65832;BME280;52593;42.648;23.332;2023-04-03T04:53:40;93931.09;;;4.49;84.19
65832;BME280;52593;42.648;23.332;2023-04-03T04:56:06;93925.47;;;4.52;84.22
65832;BME280;52593;42.648;23.332;2023-04-03T04:58:31;93926.16;;;4.54;84.48
65832;BME280;52593;42.648;23.332;2023-04-03T05:01:04;93934.59;;;4.57;84.54
65832;BME280;52593;42.648;23.332;2023-04-03T05:03:31;93927.94;;;4.53;84.34
65832;BME280;52593;42.648;23.332;2023-04-03T05:05:56;93941.03;;;4.55;84.16
65832;BME280;52593;42.648;23.332;2023-04-03T05:08:22;93947.03;;;4.65;83.99
65832;BME280;52593;42.648;23.332;2023-04-03T05:10:47;93946.88;;;4.67;84.07
65832;BME280;52593;42.648;23.332;2023-04-03T05:13:13;93949.72;;;4.73;84.77
65832;BME280;52593;42.648;23.332;2023-04-03T05:15:39;93957.50;;;4.83;84.17
65832;BME280;52593;42.648;23.332;2023-04-03T05:18:05;93956.69;;;4.99;83.65
65832;BME280;52593;42.648;23.332;2023-04-03T05:20:31;93956.88;;;5.06;83.28
65832;BME280;52593;42.648;23.332;2023-04-03T05:22:57;93958.72;;;5.13;83.59
65832;BME280;52593;42.648;23.332;2023-04-03T05:25:22;93955.75;;;5.33;82.31
65832;BME280;52593;42.648;23.332;2023-04-03T05:27:48;93961.34;;;5.46;81.80
65832;BME280;52593;42.648;23.332;2023-04-03T05:30:14;93959.19;;;5.58;80.70
65832;BME280;52593;42.648;23.332;2023-04-03T05:32:39;93951.25;;;5.50;81.75
65832;BME280;52593;42.648;23.332;2023-04-03T05:35:05;93949.22;;;5.60;81.67
65832;BME280;52593;42.648;23.332;2023-04-03T05:37:31;93943.59;;;5.63;80.13
65832;BME280;52593;42.648;23.332;2023-04-03T05:39:56;93938.09;;;5.65;79.60
65832;BME280;52593;42.648;23.332;2023-04-03T05:42:22;93941.63;;;5.65;79.83
65832;BME280;52593;42.648;23.332;2023-04-03T05:44:48;93947.38;;;5.77;79.52
65832;BME280;52593;42.648;23.332;2023-04-03T05:47:15;93941.41;;;5.75;80.33
65832;BME280;52593;42.648;23.332;2023-04-03T05:49:40;93944.56;;;5.87;79.08
65832;BME280;52593;42.648;23.332;2023-04-03T05:52:18;93942.38;;;5.90;78.68
65832;BME280;52593;42.648;23.332;2023-04-03T05:54:45;93937.44;;;5.79;79.40
65832;BME280;52593;42.648;23.332;2023-04-03T05:57:13;93927.44;;;5.89;78.40
65832;BME280;52593;42.648;23.332;2023-04-03T05:59:38;93936.56;;;5.95;78.04
65832;BME280;52593;42.648;23.332;2023-04-03T06:02:04;93929.59;;;6.02;78.08
65832;BME280;52593;42.648;23.332;2023-04-03T06:04:29;93939.16;;;6.20;78.27
65832;BME280;52593;42.648;23.332;2023-04-03T06:06:57;93943.94;;;6.33;77.21
65832;BME280;52593;42.648;23.332;2023-04-03T06:09:25;93938.41;;;6.42;77.27
65832;BME280;52593;42.648;23.332;2023-04-03T06:11:52;93922.75;;;6.48;76.65
65832;BME280;52593;42.648;23.332;2023-04-03T06:14:18;93918.84;;;6.35;76.79
65832;BME280;52593;42.648;23.332;2023-04-03T06:16:43;93924.66;;;6.39;77.21
65832;BME280;52593;42.648;23.332;2023-04-03T06:19:10;93906.69;;;6.41;77.65
65832;BME280;52593;42.648;23.332;2023-04-03T06:21:37;93911.25;;;6.55;77.35
65832;BME280;52593;42.648;23.332;2023-04-03T06:24:04;93918.84;;;6.67;76.89
65832;BME280;52593;42.648;23.332;2023-04-03T06:26:30;93919.75;;;6.82;76.60
65832;BME280;52593;42.648;23.332;2023-04-03T06:28:56;93912.91;;;6.88;75.54
65832;BME280;52593;42.648;23.332;2023-04-03T06:31:21;93921.25;;;6.85;76.15
65832;BME280;52593;42.648;23.332;2023-04-03T06:33:47;93933.94;;;6.97;76.10
65832;BME280;52593;42.648;23.332;2023-04-03T06:36:12;93925.38;;;6.87;77.06
65832;BME280;52593;42.648;23.332;2023-04-03T06:38:37;93931.28;;;7.21;75.22
65832;BME280;52593;42.648;23.332;2023-04-03T06:41:03;93943.75;;;7.43;73.51
65832;BME280;52593;42.648;23.332;2023-04-03T06:43:29;93926.59;;;7.23;74.50
65832;BME280;52593;42.648;23.332;2023-04-03T06:45:56;93932.66;;;7.40;74.37
65832;BME280;52593;42.648;23.332;2023-04-03T06:48:21;93920.22;;;7.55;72.83
65832;BME280;52593;42.648;23.332;2023-04-03T06:50:47;93924.81;;;7.61;73.03
65832;BME280;52593;42.648;23.332;2023-04-03T06:53:12;93924.03;;;7.91;70.66
65832;BME280;52593;42.648;23.332;2023-04-03T06:55:38;93936.00;;;7.57;71.75
65832;BME280;52593;42.648;23.332;2023-04-03T06:58:03;93939.78;;;7.77;71.91
65832;BME280;52593;42.648;23.332;2023-04-03T07:00:30;93942.19;;;7.72;72.31
65832;BME280;52593;42.648;23.332;2023-04-03T07:02:56;93939.88;;;7.69;72.04
65832;BME280;52593;42.648;23.332;2023-04-03T07:05:23;93928.03;;;7.86;71.54
65832;BME280;52593;42.648;23.332;2023-04-03T07:07:48;93919.06;;;8.17;71.08
65832;BME280;52593;42.648;23.332;2023-04-03T07:10:15;93922.72;;;8.31;70.21
65832;BME280;52593;42.648;23.332;2023-04-03T07:12:41;93920.16;;;8.08;70.95
65832;BME280;52593;42.648;23.332;2023-04-03T07:15:07;93924.56;;;7.86;71.35
65832;BME280;52593;42.648;23.332;2023-04-03T07:17:33;93915.34;;;7.59;71.67
65832;BME280;52593;42.648;23.332;2023-04-03T07:19:59;93923.31;;;7.59;72.50
65832;BME280;52593;42.648;23.332;2023-04-03T07:22:25;93922.91;;;8.00;71.71
65832;BME280;52593;42.648;23.332;2023-04-03T07:24:50;93917.78;;;8.13;70.84
65832;BME280;52593;42.648;23.332;2023-04-03T07:27:16;93911.78;;;8.11;71.18
65832;BME280;52593;42.648;23.332;2023-04-03T07:29:43;93906.00;;;8.08;70.84
65832;BME280;52593;42.648;23.332;2023-04-03T07:32:09;93912.97;;;8.24;70.39
65832;BME280;52593;42.648;23.332;2023-04-03T07:34:35;93897.19;;;8.52;70.15
65832;BME280;52593;42.648;23.332;2023-04-03T07:37:01;93904.41;;;8.73;68.13
65832;BME280;52593;42.648;23.332;2023-04-03T07:39:27;93897.16;;;8.67;67.23
65832;BME280;52593;42.648;23.332;2023-04-03T07:41:53;93887.88;;;8.63;67.46
65832;BME280;52593;42.648;23.332;2023-04-03T07:44:20;93896.34;;;8.51;67.55
65832;BME280;52593;42.648;23.332;2023-04-03T07:46:46;93888.88;;;8.62;67.90
65832;BME280;52593;42.648;23.332;2023-04-03T07:49:12;93884.06;;;8.72;67.83
65832;BME280;52593;42.648;23.332;2023-04-03T07:51:37;93887.56;;;8.72;66.68
65832;BME280;52593;42.648;23.332;2023-04-03T07:54:03;93894.75;;;8.72;67.49
65832;BME280;52593;42.648;23.332;2023-04-03T07:56:29;93887.97;;;8.91;67.93
65832;BME280;52593;42.648;23.332;2023-04-03T07:58:54;93884.84;;;9.09;65.46
65832;BME280;52593;42.648;23.332;2023-04-03T08:01:20;93883.78;;;9.03;66.99
65832;BME280;52593;42.648;23.332;2023-04-03T08:03:45;93880.16;;;9.11;65.34
65832;BME280;52593;42.648;23.332;2023-04-03T08:06:11;93878.13;;;9.13;65.05
65832;BME280;52593;42.648;23.332;2023-04-03T08:08:37;93884.91;;;9.16;66.38
65832;BME280;52593;42.648;23.332;2023-04-03T08:11:03;93883.22;;;9.30;66.12
65832;BME280;52593;42.648;23.332;2023-04-03T08:13:31;93874.66;;;9.41;65.44
65832;BME280;52593;42.648;23.332;2023-04-03T08:15:56;93874.88;;;9.39;65.07
65832;BME280;52593;42.648;23.332;2023-04-03T08:18:23;93880.00;;;9.69;63.84
65832;BME280;52593;42.648;23.332;2023-04-03T08:20:51;93879.69;;;9.79;63.91
65832;BME280;52593;42.648;23.332;2023-04-03T08:23:17;93884.78;;;10.09;62.34
65832;BME280;52593;42.648;23.332;2023-04-03T08:25:43;93875.84;;;9.88;63.66
65832;BME280;52593;42.648;23.332;2023-04-03T08:28:10;93876.13;;;9.72;64.67
65832;BME280;52593;42.648;23.332;2023-04-03T08:30:39;93873.25;;;10.02;62.86
65832;BME280;52593;42.648;23.332;2023-04-03T08:33:05;93876.63;;;9.82;63.86
65832;BME280;52593;42.648;23.332;2023-04-03T08:35:31;93868.06;;;9.93;63.37
65832;BME280;52593;42.648;23.332;2023-04-03T08:37:56;93861.00;;;10.14;62.16
65832;BME280;52593;42.648;23.332;2023-04-03T08:40:22;93851.53;;;10.18;62.17
65832;BME280;52593;42.648;23.332;2023-04-03T08:48:36;93862.59;;;10.43;62.44
65832;BME280;52593;42.648;23.332;2023-04-03T08:51:10;93850.44;;;10.41;62.17
65832;BME280;52593;42.648;23.332;2023-04-03T08:53:43;93850.72;;;10.24;62.10
65832;BME280;52593;42.648;23.332;2023-04-03T08:56:12;93846.91;;;10.33;62.18
65832;BME280;52593;42.648;23.332;2023-04-03T08:58:52;93827.03;;;10.49;62.05
65832;BME280;52593;42.648;23.332;2023-04-03T09:01:26;93833.84;;;10.59;62.21
65832;BME280;52593;42.648;23.332;2023-04-03T09:03:53;93834.91;;;10.64;61.51
65832;BME280;52593;42.648;23.332;2023-04-03T09:06:21;93828.75;;;10.70;61.47
65832;BME280;52593;42.648;23.332;2023-04-03T09:08:56;93816.81;;;10.80;61.10
65832;BME280;52593;42.648;23.332;2023-04-03T09:11:31;93817.22;;;10.90;61.11
65832;BME280;52593;42.648;23.332;2023-04-03T09:16:55;93807.38;;;11.04;60.86
65832;BME280;52593;42.648;23.332;2023-04-03T09:22:13;93798.31;;;11.25;59.68
65832;BME280;52593;42.648;23.332;2023-04-03T09:24:42;93806.97;;;11.40;58.18
65832;BME280;52593;42.648;23.332;2023-04-03T09:27:10;93810.47;;;11.48;58.75
65832;BME280;52593;42.648;23.332;2023-04-03T09:29:41;93804.06;;;11.55;58.14
65832;BME280;52593;42.648;23.332;2023-04-03T09:34:52;93794.31;;;11.88;55.61
65832;BME280;52593;42.648;23.332;2023-04-03T09:37:43;93801.56;;;11.94;54.11
65832;BME280;52593;42.648;23.332;2023-04-03T09:42:51;93790.19;;;11.92;54.01
65832;BME280;52593;42.648;23.332;2023-04-03T09:45:44;93793.09;;;11.97;53.77
65832;BME280;52593;42.648;23.332;2023-04-03T09:56:04;93778.16;;;12.21;51.45
65832;BME280;52593;42.648;23.332;2023-04-03T09:58:38;93766.41;;;12.22;51.41
65832;BME280;52593;42.648;23.332;2023-04-03T10:01:06;93774.97;;;11.99;51.78
65832;BME280;52593;42.648;23.332;2023-04-03T10:03:36;93772.50;;;11.77;52.66
65832;BME280;52593;42.648;23.332;2023-04-03T10:06:03;93765.09;;;11.66;52.68
65832;BME280;52593;42.648;23.332;2023-04-03T10:08:33;93763.03;;;11.68;52.39
65832;BME280;52593;42.648;23.332;2023-04-03T10:13:32;93768.88;;;11.32;54.00
65832;BME280;52593;42.648;23.332;2023-04-03T10:16:07;93772.78;;;11.22;55.43
65832;BME280;52593;42.648;23.332;2023-04-03T10:19:01;93771.75;;;11.23;55.48
65832;BME280;52593;42.648;23.332;2023-04-03T10:21:53;93752.59;;;11.00;55.76
65832;BME280;52593;42.648;23.332;2023-04-03T10:24:24;93771.13;;;11.21;55.16
65832;BME280;52593;42.648;23.332;2023-04-03T10:27:13;93769.50;;;11.14;56.03
65832;BME280;52593;42.648;23.332;2023-04-03T10:29:55;93759.59;;;11.14;56.00
65832;BME280;52593;42.648;23.332;2023-04-03T10:32:49;93767.44;;;11.22;55.62
65832;BME280;52593;42.648;23.332;2023-04-03T10:35:20;93754.03;;;11.29;55.72
65832;BME280;52593;42.648;23.332;2023-04-03T10:38:03;93745.59;;;11.32;55.24
65832;BME280;52593;42.648;23.332;2023-04-03T10:43:29;93746.41;;;11.26;55.45
65832;BME280;52593;42.648;23.332;2023-04-03T10:46:11;93735.28;;;11.16;55.50
65832;BME280;52593;42.648;23.332;2023-04-03T10:49:01;93729.94;;;11.09;55.80
65832;BME280;52593;42.648;23.332;2023-04-03T10:54:22;93739.00;;;11.01;56.55
65832;BME280;52593;42.648;23.332;2023-04-03T10:56:58;93736.53;;;11.00;56.95
65832;BME280;52593;42.648;23.332;2023-04-03T10:59:43;93734.69;;;11.00;57.39
65832;BME280;52593;42.648;23.332;2023-04-03T11:02:58;93743.13;;;10.97;59.31
65832;BME280;52593;42.648;23.332;2023-04-03T11:05:13;93744.16;;;11.03;61.04
65832;BME280;52593;42.648;23.332;2023-04-03T11:07:43;93746.22;;;10.87;62.58
65832;BME280;52593;42.648;23.332;2023-04-03T11:10:20;93748.66;;;10.76;65.38
65832;BME280;52593;42.648;23.332;2023-04-03T11:13:02;93752.56;;;10.60;67.43
65832;BME280;52593;42.648;23.332;2023-04-03T11:15:32;93738.66;;;10.23;68.81
65832;BME280;52593;42.648;23.332;2023-04-03T11:18:11;93755.34;;;10.31;69.43
65832;BME280;52593;42.648;23.332;2023-04-03T11:20:43;93753.06;;;10.22;69.40
65832;BME280;52593;42.648;23.332;2023-04-03T11:23:21;93741.09;;;10.17;71.76
65832;BME280;52593;42.648;23.332;2023-04-03T11:25:53;93745.59;;;10.04;72.04
65832;BME280;52593;42.648;23.332;2023-04-03T11:28:19;93758.94;;;10.04;73.13
65832;BME280;52593;42.648;23.332;2023-04-03T11:33:51;93756.22;;;9.90;75.93
65832;BME280;52593;42.648;23.332;2023-04-03T11:36:28;93754.78;;;9.88;77.47
65832;BME280;52593;42.648;23.332;2023-04-03T11:38:57;93752.69;;;9.83;78.80
65832;BME280;52593;42.648;23.332;2023-04-03T11:41:28;93759.00;;;9.75;79.95
65832;BME280;52593;42.648;23.332;2023-04-03T11:46:49;93763.34;;;9.76;82.75
65832;BME280;52593;42.648;23.332;2023-04-03T11:49:50;93760.38;;;9.58;82.30
65832;BME280;52593;42.648;23.332;2023-04-03T12:14:04;93745.25;;;8.59;90.56
65832;BME280;52593;42.648;23.332;2023-04-03T12:29:20;93748.63;;;8.67;95.19
65832;BME280;52593;42.648;23.332;2023-04-03T12:48:58;93703.09;;;8.26;97.53
65832;BME280;52593;42.648;23.332;2023-04-03T12:54:15;93699.97;;;8.22;98.48
65832;BME280;52593;42.648;23.332;2023-04-03T12:56:41;93699.00;;;8.08;99.11
65832;BME280;52593;42.648;23.332;2023-04-03T12:59:21;93700.91;;;8.14;99.73
65832;BME280;52593;42.648;23.332;2023-04-03T13:01:58;93710.75;;;8.14;99.76
65832;BME280;52593;42.648;23.332;2023-04-03T13:04:25;93710.88;;;8.06;99.10
65832;BME280;52593;42.648;23.332;2023-04-03T13:06:52;93704.22;;;7.95;97.66
65832;BME280;52593;42.648;23.332;2023-04-03T13:11:47;93713.47;;;7.99;98.39
65832;BME280;52593;42.648;23.332;2023-04-03T13:14:23;93700.50;;;7.96;98.00
65832;BME280;52593;42.648;23.332;2023-04-03T13:17:09;93700.50;;;7.96;98.70
65832;BME280;52593;42.648;23.332;2023-04-03T13:19:37;93697.41;;;7.92;98.62
65832;BME280;52593;42.648;23.332;2023-04-03T13:22:06;93706.78;;;7.88;99.81
65832;BME280;52593;42.648;23.332;2023-04-03T13:24:36;93702.66;;;7.85;100.00
65832;BME280;52593;42.648;23.332;2023-04-03T13:27:03;93703.13;;;7.89;100.00
65832;BME280;52593;42.648;23.332;2023-04-03T13:29:35;93700.34;;;7.82;100.00
65832;BME280;52593;42.648;23.332;2023-04-03T13:32:02;93700.91;;;7.78;100.00
65832;BME280;52593;42.648;23.332;2023-04-03T13:34:37;93685.59;;;7.80;100.00
65832;BME280;52593;42.648;23.332;2023-04-03T13:37:03;93696.44;;;7.78;100.00
65832;BME280;52593;42.648;23.332;2023-04-03T13:39:35;93692.50;;;7.74;100.00
65832;BME280;52593;42.648;23.332;2023-04-03T13:42:23;93701.97;;;7.77;100.00
65832;BME280;52593;42.648;23.332;2023-04-03T13:47:41;93699.47;;;7.75;100.00
65832;BME280;52593;42.648;23.332;2023-04-03T13:50:18;93683.13;;;7.78;100.00
65832;BME280;52593;42.648;23.332;2023-04-03T13:52:54;93689.72;;;7.82;100.00
65832;BME280;52593;42.648;23.332;2023-04-03T13:55:32;93685.13;;;7.76;100.00
65832;BME280;52593;42.648;23.332;2023-04-03T13:58:21;93678.75;;;7.71;100.00
65832;BME280;52593;42.648;23.332;2023-04-03T14:04:00;93680.69;;;7.62;100.00
65832;BME280;52593;42.648;23.332;2023-04-03T14:06:00;93690.03;;;7.58;100.00
65832;BME280;52593;42.648;23.332;2023-04-03T14:08:26;93677.47;;;7.52;100.00
65832;BME280;52593;42.648;23.332;2023-04-03T14:10:52;93679.38;;;7.58;100.00
65832;BME280;52593;42.648;23.332;2023-04-03T14:13:19;93667.00;;;7.50;100.00
65832;BME280;52593;42.648;23.332;2023-04-03T14:15:47;93657.97;;;7.44;100.00
65832;BME280;52593;42.648;23.332;2023-04-03T14:18:16;93673.44;;;7.56;100.00
65832;BME280;52593;42.648;23.332;2023-04-03T14:20:43;93678.50;;;7.50;100.00
65832;BME280;52593;42.648;23.332;2023-04-03T14:23:09;93666.19;;;7.49;100.00
65832;BME280;52593;42.648;23.332;2023-04-03T14:25:35;93663.41;;;7.58;100.00
65832;BME280;52593;42.648;23.332;2023-04-03T14:28:01;93670.03;;;7.47;100.00
65832;BME280;52593;42.648;23.332;2023-04-03T14:30:30;93675.38;;;7.47;100.00
65832;BME280;52593;42.648;23.332;2023-04-03T14:32:56;93673.75;;;7.46;100.00
65832;BME280;52593;42.648;23.332;2023-04-03T14:35:22;93659.44;;;7.32;100.00
65832;BME280;52593;42.648;23.332;2023-04-03T14:37:48;93663.56;;;7.35;100.00
65832;BME280;52593;42.648;23.332;2023-04-03T14:40:26;93667.88;;;7.36;100.00
65832;BME280;52593;42.648;23.332;2023-04-03T14:42:52;93669.78;;;7.27;100.00
65832;BME280;52593;42.648;23.332;2023-04-03T14:45:21;93655.13;;;7.31;100.00
65832;BME280;52593;42.648;23.332;2023-04-03T14:47:49;93667.69;;;7.37;100.00
65832;BME280;52593;42.648;23.332;2023-04-03T14:50:26;93652.03;;;7.27;100.00